Time;durP1;ratioP1;P1;durP2;ratioP2;P2;SDS_P1;SDS_P2;PMS_P1;PMS_P2;Temp;Humidity;BMP_temperature;BMP_pressure;BME280_temperature;BME280_humidity;BME280_pressure;Samples;Min_cycle;Max_cycle;Signal;HPM_P1;HPM_P2
2024/01/23 00:00:24;;;;;;;14.93;3.80;;;6.30;99.90;;;;;;5073539;28;20304;-65
2024/01/23 00:02:52;;;;;;;11.13;3.97;;;6.30;99.90;;;;;;5073366;28;20228;-64
2024/01/23 00:05:19;;;;;;;9.73;3.63;;;6.40;99.90;;;;;;5073621;28;20205;-64
2024/01/23 00:07:46;;;;;;;11.90;4.28;;;6.40;99.90;;;;;;5073174;28;20203;-64
2024/01/23 00:10:13;;;;;;;10.73;4.30;;;6.50;99.90;;;;;;5072869;28;20200;-64
2024/01/23 00:12:39;;;;;;;14.38;4.15;;;6.50;99.90;;;;;;5073272;28;20264;-64
2024/01/23 00:15:07;;;;;;;11.65;3.88;;;6.60;99.90;;;;;;5073805;28;20203;-63
2024/01/23 00:17:33;;;;;;;10.77;4.50;;;6.60;99.90;;;;;;5073501;28;20588;-64
2024/01/23 00:20:03;;;;;;;11.05;4.07;;;6.60;99.90;;;;;;5073616;28;20216;-62
2024/01/23 00:22:30;;;;;;;15.38;4.75;;;6.60;99.90;;;;;;5073090;28;20225;-63
2024/01/23 00:24:57;;;;;;;10.98;3.85;;;6.50;99.90;;;;;;5073529;28;20296;-64
2024/01/23 00:27:24;;;;;;;7.70;3.55;;;6.50;99.90;;;;;;5073412;28;20292;-64
2024/01/23 00:29:51;;;;;;;9.38;3.55;;;6.50;99.90;;;;;;5077260;28;20216;-64
2024/01/23 00:32:17;;;;;;;14.73;3.88;;;6.50;99.90;;;;;;5077304;28;20211;-64
2024/01/23 00:34:44;;;;;;;9.07;2.90;;;6.50;99.90;;;;;;5077852;28;20208;-64
2024/01/23 00:37:12;;;;;;;8.98;3.30;;;6.50;99.90;;;;;;5077382;28;20228;-63
2024/01/23 00:39:39;;;;;;;17.00;3.45;;;6.60;99.90;;;;;;5077046;28;20204;-63
2024/01/23 00:42:08;;;;;;;12.27;3.65;;;6.60;99.90;;;;;;5076890;28;20687;-63
2024/01/23 00:44:35;;;;;;;9.48;3.10;;;6.60;99.90;;;;;;5077345;28;20205;-65
2024/01/23 00:47:02;;;;;;;13.80;2.97;;;6.70;99.90;;;;;;5076996;28;20204;-64
2024/01/23 00:49:29;;;;;;;15.88;3.40;;;6.70;99.90;;;;;;5076614;28;20220;-64
2024/01/23 00:51:55;;;;;;;8.65;2.75;;;6.70;99.90;;;;;;5077132;28;20201;-63
2024/01/23 00:54:23;;;;;;;12.68;3.70;;;6.70;99.90;;;;;;5076982;28;20217;-63
2024/01/23 00:56:50;;;;;;;11.20;2.85;;;6.80;99.90;;;;;;5076807;28;20205;-64
2024/01/23 00:59:17;;;;;;;10.95;3.03;;;6.70;99.90;;;;;;5076412;28;20706;-64
2024/01/23 01:01:44;;;;;;;10.85;3.53;;;6.80;99.90;;;;;;5076941;28;20203;-65
2024/01/23 01:04:10;;;;;;;13.77;3.95;;;6.80;99.90;;;;;;5076458;28;20234;-64
2024/01/23 01:06:37;;;;;;;11.10;2.63;;;6.80;99.90;;;;;;5078063;28;20201;-63
2024/01/23 01:09:05;;;;;;;9.85;3.03;;;6.80;99.90;;;;;;5079196;28;20731;-64
2024/01/23 01:11:33;;;;;;;12.30;2.78;;;6.80;99.90;;;;;;5076127;28;20212;-64
2024/01/23 01:14:00;;;;;;;13.02;3.78;;;6.80;99.90;;;;;;5076757;28;20221;-64
2024/01/23 01:16:26;;;;;;;6.93;2.42;;;6.80;99.90;;;;;;5077742;28;20304;-63
2024/01/23 01:18:53;;;;;;;10.80;3.42;;;6.90;99.90;;;;;;5078963;28;20243;-63
2024/01/23 01:21:20;;;;;;;11.30;2.50;;;6.90;99.90;;;;;;5078004;28;20204;-63
2024/01/23 01:23:47;;;;;;;9.13;3.88;;;7.00;99.90;;;;;;5076936;28;20231;-64
2024/01/23 01:26:14;;;;;;;5.35;1.85;;;7.00;99.90;;;;;;5075884;28;20667;-65
2024/01/23 01:28:42;;;;;;;9.38;2.88;;;7.00;99.90;;;;;;5076314;28;20208;-63
2024/01/23 01:31:09;;;;;;;12.27;3.20;;;7.00;99.90;;;;;;5075572;28;20201;-64
2024/01/23 01:33:35;;;;;;;8.15;3.08;;;7.00;99.90;;;;;;5075579;28;20319;-64
2024/01/23 01:36:03;;;;;;;15.98;3.30;;;7.00;99.90;;;;;;5075539;28;20201;-63
2024/01/23 01:38:30;;;;;;;10.75;3.15;;;7.00;99.90;;;;;;5075582;28;20224;-62
2024/01/23 01:40:58;;;;;;;7.38;2.47;;;7.00;99.90;;;;;;5074766;28;20212;-64
2024/01/23 01:43:27;;;;;;;11.60;3.13;;;7.10;99.90;;;;;;5075323;28;20220;-64
2024/01/23 01:46:10;;;;;;;5.93;2.90;;;7.10;99.90;;;;;;5074999;28;20670;-64
2024/01/23 01:48:37;;;;;;;14.23;3.03;;;7.10;99.90;;;;;;5075573;28;20177;-64
2024/01/23 01:51:05;;;;;;;10.13;3.00;;;7.10;99.90;;;;;;5075546;28;20201;-64
2024/01/23 01:53:32;;;;;;;6.25;2.67;;;7.10;99.90;;;;;;5075276;28;20251;-64
2024/01/23 01:55:59;;;;;;;6.25;2.67;;;7.20;99.90;;;;;;5075785;28;20709;-63
2024/01/23 01:58:28;;;;;;;6.50;3.15;;;7.10;99.90;;;;;;5076032;28;20220;-63
2024/01/23 02:00:57;;;;;;;8.48;2.35;;;7.10;99.90;;;;;;5075943;28;20208;-62
2024/01/23 02:03:23;;;;;;;9.77;1.67;;;7.10;99.90;;;;;;5075523;28;20600;-62
2024/01/23 02:05:51;;;;;;;8.95;2.85;;;7.20;99.90;;;;;;5075254;28;20583;-63
2024/01/23 02:08:18;;;;;;;9.38;3.00;;;7.10;99.90;;;;;;5075242;28;20197;-64
2024/01/23 02:10:45;;;;;;;12.90;3.10;;;7.20;99.90;;;;;;5077022;28;20208;-63
2024/01/23 02:13:11;;;;;;;9.20;1.85;;;7.20;99.90;;;;;;5076211;28;20235;-64
2024/01/23 02:15:38;;;;;;;11.50;2.20;;;7.20;99.90;;;;;;5077104;28;20205;-63
2024/01/23 02:18:06;;;;;;;14.27;3.65;;;7.20;99.90;;;;;;5077549;28;20221;-64
2024/01/23 02:20:33;;;;;;;7.82;2.85;;;7.20;99.90;;;;;;5077562;28;20205;-64
2024/01/23 02:23:00;;;;;;;7.40;3.20;;;7.20;99.90;;;;;;5076031;28;20228;-64
2024/01/23 02:25:28;;;;;;;7.30;2.58;;;7.20;99.90;;;;;;5076763;28;20682;-62
2024/01/23 02:27:55;;;;;;;9.15;2.53;;;7.10;99.90;;;;;;5077005;28;20212;-64
2024/01/23 02:30:22;;;;;;;12.88;3.33;;;7.10;99.90;;;;;;5078145;28;20667;-63
2024/01/23 02:32:49;;;;;;;13.18;2.38;;;7.10;99.90;;;;;;5077005;28;20318;-63
2024/01/23 02:35:15;;;;;;;9.60;2.75;;;7.00;99.90;;;;;;5079648;28;20197;-63
2024/01/23 02:37:42;;;;;;;7.65;2.28;;;7.00;99.90;;;;;;5081050;28;20201;-64
2024/01/23 02:40:10;;;;;;;9.13;2.90;;;6.90;99.90;;;;;;5081108;28;20215;-63
2024/01/23 02:42:38;;;;;;;10.13;3.28;;;6.90;99.90;;;;;;5079208;28;20221;-63
2024/01/23 02:45:05;;;;;;;15.40;2.80;;;6.90;99.90;;;;;;5081965;28;20201;-63
2024/01/23 02:47:32;;;;;;;7.45;2.78;;;6.90;99.90;;;;;;5089288;28;20204;-63
2024/01/23 02:49:59;;;;;;;9.02;3.33;;;6.90;99.90;;;;;;5090955;28;20681;-63
2024/01/23 02:52:31;;;;;;;14.05;2.30;;;6.90;99.90;;;;;;5089429;28;20284;-63
2024/01/23 02:54:57;;;;;;;8.75;2.60;;;6.90;99.90;;;;;;5090967;28;20231;-63
2024/01/23 02:57:24;;;;;;;11.35;3.28;;;7.00;99.90;;;;;;5089444;28;20200;-63
2024/01/23 02:59:52;;;;;;;10.98;2.65;;;7.00;99.90;;;;;;5089501;28;20226;-63
2024/01/23 03:02:19;;;;;;;19.30;3.03;;;7.00;99.90;;;;;;5075125;22;20230;-65
2024/01/23 03:04:46;;;;;;;12.02;3.05;;;7.00;99.90;;;;;;5035061;28;20272;-65
2024/01/23 03:07:13;;;;;;;8.38;2.35;;;7.00;99.90;;;;;;5035429;28;20198;-65
2024/01/23 03:09:40;;;;;;;7.22;2.78;;;7.00;99.90;;;;;;5035268;28;20202;-64
2024/01/23 03:12:15;;;;;;;11.82;3.28;;;6.90;99.90;;;;;;5034792;28;20222;-64
2024/01/23 03:14:42;;;;;;;6.65;2.83;;;6.90;99.90;;;;;;5034665;28;20282;-64
2024/01/23 03:17:10;;;;;;;14.00;2.85;;;6.90;99.90;;;;;;5034847;28;20209;-65
2024/01/23 03:19:37;;;;;;;10.07;3.45;;;6.90;99.90;;;;;;5034967;28;20223;-64
2024/01/23 03:22:04;;;;;;;12.00;2.65;;;6.90;99.90;;;;;;5035761;28;20222;-64
2024/01/23 03:24:31;;;;;;;10.30;2.83;;;6.90;99.90;;;;;;5035287;28;20207;-65
2024/01/23 03:26:58;;;;;;;8.85;2.70;;;6.90;99.90;;;;;;5034924;28;20213;-65
2024/01/23 03:29:25;;;;;;;7.20;2.15;;;6.80;99.90;;;;;;5034440;28;20573;-65
2024/01/23 03:31:52;;;;;;;6.18;2.00;;;6.80;99.90;;;;;;5034602;28;20228;-64
2024/01/23 03:34:21;;;;;;;8.85;2.30;;;6.80;99.90;;;;;;5034428;28;20208;-65
2024/01/23 03:36:47;;;;;;;11.63;2.65;;;6.80;99.90;;;;;;5035388;28;20209;-65
2024/01/23 03:39:15;;;;;;;8.65;2.30;;;6.80;99.90;;;;;;5034171;28;20233;-65
2024/01/23 03:41:41;;;;;;;13.02;2.63;;;6.70;99.90;;;;;;5033759;28;20257;-64
2024/01/23 03:44:08;;;;;;;8.20;2.15;;;6.70;99.90;;;;;;5034097;28;20202;-64
2024/01/23 03:46:35;;;;;;;10.00;2.58;;;6.70;99.90;;;;;;5034108;28;20202;-64
2024/01/23 03:49:02;;;;;;;6.85;1.77;;;6.70;99.90;;;;;;5034103;28;20206;-64
2024/01/23 03:51:30;;;;;;;8.32;2.20;;;6.70;99.90;;;;;;5034070;28;20324;-66
2024/01/23 03:53:57;;;;;;;10.80;2.67;;;6.70;99.90;;;;;;5034071;28;20213;-64
2024/01/23 03:56:23;;;;;;;5.90;1.98;;;6.70;99.90;;;;;;5033792;28;20220;-65
2024/01/23 03:58:50;;;;;;;16.17;2.40;;;6.70;99.90;;;;;;5034971;28;20722;-65
2024/01/23 04:01:17;;;;;;;6.63;2.17;;;6.80;99.90;;;;;;5034919;28;20230;-63
2024/01/23 04:03:44;;;;;;;11.23;3.50;;;6.80;99.90;;;;;;5033804;28;20198;-65
2024/01/23 04:06:11;;;;;;;8.05;2.60;;;6.80;99.90;;;;;;5034789;28;20222;-66
2024/01/23 04:08:39;;;;;;;7.65;2.40;;;6.90;99.90;;;;;;5034093;28;20216;-65
2024/01/23 04:13:02;;;;;;;7.45;2.47;;;6.90;99.90;;;;;;5091600;28;20962;-64
2024/01/23 04:15:29;;;;;;;5.70;1.80;;;7.00;99.90;;;;;;5091135;28;20685;-66
2024/01/23 04:17:56;;;;;;;10.50;2.75;;;7.00;99.90;;;;;;5091773;28;20208;-65
2024/01/23 04:20:23;;;;;;;7.22;1.85;;;7.00;99.90;;;;;;5092920;28;20201;-66
2024/01/23 04:22:49;;;;;;;7.18;2.17;;;7.00;99.90;;;;;;5093043;28;20216;-65
2024/01/23 04:25:16;;;;;;;12.40;2.63;;;7.00;99.90;;;;;;5112861;22;20200;-66
2024/01/23 04:27:43;;;;;;;7.80;2.33;;;7.00;99.90;;;;;;5071259;28;20666;-64
2024/01/23 04:30:12;;;;;;;7.82;2.85;;;7.00;99.90;;;;;;5071197;28;20204;-65
2024/01/23 04:32:41;;;;;;;7.20;2.72;;;7.00;99.90;;;;;;5070322;28;20221;-64
2024/01/23 04:35:08;;;;;;;5.88;2.50;;;7.00;99.90;;;;;;5070190;28;20701;-63
2024/01/23 04:37:35;;;;;;;12.63;3.08;;;7.00;99.90;;;;;;5069658;28;20301;-64
2024/01/23 04:40:03;;;;;;;16.40;3.08;;;7.00;99.90;;;;;;5069644;28;20679;-63
2024/01/23 04:42:29;;;;;;;9.30;2.33;;;7.00;99.90;;;;;;5069892;28;20605;-65
2024/01/23 04:44:56;;;;;;;5.38;2.03;;;7.00;99.90;;;;;;5069926;28;20212;-64
2024/01/23 04:47:24;;;;;;;6.07;2.50;;;7.00;99.90;;;;;;5069845;28;20217;-65
2024/01/23 04:49:51;;;;;;;9.63;2.67;;;7.00;99.90;;;;;;5069625;28;20201;-64
2024/01/23 04:52:17;;;;;;;8.85;2.80;;;7.00;99.90;;;;;;5069734;28;20228;-63
2024/01/23 04:54:44;;;;;;;9.70;2.80;;;7.00;99.90;;;;;;5069776;28;20285;-65
2024/01/23 04:57:13;;;;;;;6.57;2.20;;;7.00;99.90;;;;;;5069637;28;20247;-65
2024/01/23 04:59:40;;;;;;;12.70;2.80;;;7.00;99.90;;;;;;5069883;28;20201;-65
2024/01/23 05:02:07;;;;;;;11.35;2.58;;;7.00;99.90;;;;;;5070009;28;20197;-64
2024/01/23 05:04:35;;;;;;;8.52;1.83;;;7.00;99.90;;;;;;5069738;28;20203;-65
2024/01/23 05:07:02;;;;;;;7.55;2.72;;;7.00;99.90;;;;;;5069501;28;20225;-64
2024/01/23 05:09:31;;;;;;;11.75;2.60;;;6.90;99.90;;;;;;5069657;28;20197;-64
2024/01/23 05:11:57;;;;;;;5.53;2.35;;;6.90;99.90;;;;;;5070497;28;20307;-63
2024/01/23 05:14:24;;;;;;;8.57;2.22;;;7.00;99.90;;;;;;5070580;28;20205;-64
2024/01/23 05:16:51;;;;;;;15.77;3.38;;;6.90;99.90;;;;;;5069056;28;20710;-64
2024/01/23 05:19:18;;;;;;;8.98;2.28;;;6.90;99.90;;;;;;5069283;28;20208;-64
2024/01/23 05:21:46;;;;;;;15.18;3.92;;;6.90;99.90;;;;;;5068952;28;20197;-63
2024/01/23 05:24:13;;;;;;;8.68;2.22;;;6.90;99.90;;;;;;5057785;28;20205;-63
2024/01/23 05:26:39;;;;;;;7.63;2.65;;;6.90;99.90;;;;;;5057165;28;20241;-65
2024/01/23 05:29:06;;;;;;;11.05;3.03;;;6.90;99.90;;;;;;5059034;28;20672;-64
2024/01/23 05:31:33;;;;;;;10.60;2.83;;;6.90;99.90;;;;;;5058110;28;20250;-65
2024/01/23 05:33:59;;;;;;;6.97;2.15;;;6.90;99.90;;;;;;5056534;28;20205;-64
2024/01/23 05:36:26;;;;;;;8.07;2.30;;;6.90;99.90;;;;;;5056472;28;20236;-63
2024/01/23 05:38:54;;;;;;;10.93;2.13;;;6.90;99.90;;;;;;5056290;28;20201;-64
2024/01/23 05:41:21;;;;;;;4.05;1.95;;;6.90;99.90;;;;;;5056591;28;20202;-65
2024/01/23 05:43:50;;;;;;;22.38;3.40;;;6.90;99.90;;;;;;5057483;28;20216;-63
2024/01/23 05:46:16;;;;;;;6.32;2.42;;;6.90;99.90;;;;;;5058004;28;20275;-64
2024/01/23 05:48:43;;;;;;;6.97;2.50;;;6.90;99.90;;;;;;5058250;28;20204;-63
2024/01/23 05:51:10;;;;;;;8.93;2.47;;;6.90;99.90;;;;;;5056034;28;20671;-64
2024/01/23 05:53:36;;;;;;;9.82;2.90;;;6.90;99.90;;;;;;5056055;28;20205;-65
2024/01/23 05:56:05;;;;;;;16.42;3.45;;;6.90;99.90;;;;;;5056820;28;20220;-63
2024/01/23 05:58:32;;;;;;;11.80;3.08;;;6.90;99.90;;;;;;5057535;28;20416;-63
2024/01/23 06:00:58;;;;;;;14.23;2.42;;;6.90;99.90;;;;;;5056745;28;20201;-62
2024/01/23 06:03:25;;;;;;;16.83;5.55;;;6.90;99.90;;;;;;5056067;28;20200;-63
2024/01/23 06:05:53;;;;;;;8.68;2.80;;;6.90;99.90;;;;;;5055443;28;20232;-63
2024/01/23 06:08:19;;;;;;;16.98;4.00;;;6.90;99.90;;;;;;5056078;28;20275;-62
2024/01/23 06:10:47;;;;;;;11.10;2.50;;;6.90;99.90;;;;;;5056007;28;20208;-63
2024/01/23 06:13:15;;;;;;;13.50;3.58;;;6.90;99.90;;;;;;5056865;28;20671;-63
2024/01/23 06:15:43;;;;;;;11.43;2.55;;;6.90;99.90;;;;;;5056907;28;20233;-63
2024/01/23 06:18:10;;;;;;;4.00;2.28;;;6.90;99.90;;;;;;5056601;28;20201;-63
2024/01/23 06:20:38;;;;;;;10.45;3.05;;;6.90;99.90;;;;;;5056382;28;20672;-64
2024/01/23 06:23:05;;;;;;;10.88;2.85;;;7.00;99.90;;;;;;5055261;28;20201;-65
2024/01/23 06:25:31;;;;;;;7.50;2.40;;;6.90;99.90;;;;;;5054472;28;20229;-66
2024/01/23 06:27:58;;;;;;;12.77;3.20;;;7.00;99.90;;;;;;5055175;28;20205;-65
2024/01/23 06:30:26;;;;;;;10.65;2.78;;;6.90;99.90;;;;;;5055329;28;20213;-63
2024/01/23 06:32:53;;;;;;;13.27;2.95;;;6.90;99.90;;;;;;5055538;28;20305;-65
2024/01/23 06:35:20;;;;;;;16.13;3.05;;;6.90;99.90;;;;;;5055623;28;20587;-65
2024/01/23 06:37:47;;;;;;;9.07;3.30;;;6.90;99.90;;;;;;5058802;28;20201;-64
2024/01/23 06:40:14;;;;;;;8.80;2.58;;;6.90;99.90;;;;;;5060104;28;20208;-62
2024/01/23 06:42:41;;;;;;;7.28;3.17;;;6.90;99.90;;;;;;5059820;28;20201;-63
2024/01/23 06:45:08;;;;;;;10.50;2.80;;;6.90;99.90;;;;;;5059032;28;20292;-65
2024/01/23 06:47:36;;;;;;;8.65;3.40;;;6.80;99.90;;;;;;5058264;28;20198;-64
2024/01/23 06:50:03;;;;;;;9.18;2.53;;;6.80;99.90;;;;;;5057924;28;20640;-63
2024/01/23 06:52:30;;;;;;;8.55;2.72;;;6.70;99.90;;;;;;5055670;28;20221;-64
2024/01/23 06:54:57;;;;;;;8.73;2.45;;;6.60;99.90;;;;;;5056120;28;20210;-64
2024/01/23 06:57:24;;;;;;;13.38;3.45;;;6.60;99.90;;;;;;5055434;28;20218;-64
2024/01/23 06:59:51;;;;;;;9.60;2.83;;;6.50;99.90;;;;;;5055590;28;20256;-64
2024/01/23 07:02:17;;;;;;;7.93;2.72;;;6.50;99.90;;;;;;5055664;28;20193;-64
2024/01/23 07:04:45;;;;;;;9.07;3.15;;;6.50;99.90;;;;;;5055112;28;20259;-64
2024/01/23 07:07:12;;;;;;;16.15;3.63;;;6.40;99.90;;;;;;5055370;28;20235;-64
2024/01/23 07:09:39;;;;;;;14.07;3.05;;;6.30;99.90;;;;;;5055208;28;20220;-65
2024/01/23 07:12:06;;;;;;;10.90;2.28;;;6.10;99.90;;;;;;5054908;28;20228;-66
2024/01/23 07:14:33;;;;;;;18.85;3.95;;;6.00;99.90;;;;;;5055397;28;20198;-64
2024/01/23 07:17:00;;;;;;;11.00;3.05;;;6.00;99.90;;;;;;5056278;28;20221;-64
2024/01/23 07:19:26;;;;;;;13.15;3.05;;;5.90;99.90;;;;;;5056080;28;20560;-65
2024/01/23 07:21:54;;;;;;;22.95;3.78;;;5.90;99.90;;;;;;5055659;28;20202;-63
2024/01/23 07:24:21;;;;;;;9.65;3.30;;;5.90;99.90;;;;;;5056197;28;20198;-65
2024/01/23 07:26:48;;;;;;;14.18;3.03;;;5.90;99.90;;;;;;5054732;28;20587;-63
2024/01/23 07:29:15;;;;;;;10.68;3.85;;;6.00;99.90;;;;;;5055276;28;20201;-63
2024/01/23 07:31:42;;;;;;;12.02;3.55;;;6.10;99.90;;;;;;5056011;28;20202;-64
2024/01/23 07:34:09;;;;;;;8.23;2.60;;;6.10;99.90;;;;;;5055423;28;20205;-65
2024/01/23 07:36:36;;;;;;;13.05;3.45;;;6.20;99.90;;;;;;5055772;28;20283;-64
2024/01/23 07:39:05;;;;;;;9.43;2.80;;;6.20;99.90;;;;;;5054968;28;20212;-62
2024/01/23 07:41:32;;;;;;;9.88;3.42;;;6.30;99.90;;;;;;5057056;28;20225;-64
2024/01/23 07:43:59;;;;;;;7.80;3.33;;;6.30;99.90;;;;;;5055536;28;20205;-62
2024/01/23 07:46:26;;;;;;;11.60;3.58;;;6.40;99.90;;;;;;5055051;28;20236;-65
2024/01/23 07:48:53;;;;;;;16.52;3.90;;;6.40;99.90;;;;;;5057860;28;20206;-64
2024/01/23 07:51:20;;;;;;;16.40;4.22;;;6.40;99.90;;;;;;5056634;28;20206;-64
2024/01/23 07:53:46;;;;;;;13.43;3.25;;;6.40;99.90;;;;;;5057225;28;20226;-62
2024/01/23 07:56:14;;;;;;;12.77;3.65;;;6.50;99.90;;;;;;5056879;28;20729;-64
2024/01/23 07:58:41;;;;;;;14.52;3.90;;;6.50;99.90;;;;;;5056108;28;20198;-64
2024/01/23 08:01:08;;;;;;;8.38;2.97;;;6.60;99.90;;;;;;5054994;28;20695;-64
2024/01/23 08:03:34;;;;;;;8.05;3.28;;;6.60;99.90;;;;;;5054331;28;20216;-63
2024/01/23 08:06:01;;;;;;;18.98;4.45;;;6.60;99.90;;;;;;5054724;28;20221;-64
2024/01/23 08:08:29;;;;;;;12.82;3.78;;;6.70;99.90;;;;;;5055046;28;20208;-63
2024/01/23 08:10:56;;;;;;;17.75;4.40;;;6.70;99.90;;;;;;5054331;28;20293;-64
2024/01/23 08:13:24;;;;;;;18.23;3.15;;;6.70;99.90;;;;;;5054167;28;20573;-65
2024/01/23 08:15:51;;;;;;;14.48;3.67;;;6.80;99.90;;;;;;5054569;28;20217;-64
2024/01/23 08:18:18;;;;;;;12.38;3.35;;;6.80;99.90;;;;;;5054628;28;20687;-63
2024/01/23 08:20:45;;;;;;;10.50;3.35;;;6.80;99.90;;;;;;5055811;28;20260;-64
2024/01/23 08:23:12;;;;;;;12.50;4.20;;;6.80;99.90;;;;;;5054539;28;20548;-64
2024/01/23 08:25:38;;;;;;;13.80;3.33;;;6.80;99.90;;;;;;5054696;28;20236;-65
2024/01/23 08:28:06;;;;;;;12.20;3.40;;;6.80;99.90;;;;;;5056340;28;20650;-64
2024/01/23 08:30:34;;;;;;;9.10;2.63;;;6.90;99.90;;;;;;5054803;28;20694;-65
2024/01/23 08:33:00;;;;;;;17.65;4.10;;;6.90;99.90;;;;;;5055561;28;20305;-64
2024/01/23 08:35:27;;;;;;;12.27;3.25;;;6.90;99.90;;;;;;5054510;28;20229;-66
2024/01/23 08:37:54;;;;;;;13.95;3.88;;;6.90;99.90;;;;;;5055044;28;20206;-65
2024/01/23 08:40:20;;;;;;;17.70;4.10;;;6.80;99.90;;;;;;5054701;28;20201;-64
2024/01/23 08:42:47;;;;;;;15.25;3.10;;;6.90;99.90;;;;;;5055207;28;20687;-66
2024/01/23 08:45:14;;;;;;;10.15;3.60;;;6.90;99.90;;;;;;5055394;28;20209;-64
2024/01/23 08:47:42;;;;;;;14.15;4.15;;;6.90;99.90;;;;;;5055199;28;20205;-64
2024/01/23 08:50:10;;;;;;;20.38;4.43;;;6.90;99.90;;;;;;5055098;28;20213;-64
2024/01/23 08:52:37;;;;;;;9.88;2.80;;;7.00;99.90;;;;;;5055315;28;20218;-65
2024/01/23 08:55:04;;;;;;;15.30;3.38;;;6.90;99.90;;;;;;5055362;28;20210;-65
2024/01/23 08:57:30;;;;;;;14.10;4.47;;;6.90;99.90;;;;;;5054960;28;20205;-64
2024/01/23 08:59:57;;;;;;;19.00;3.60;;;6.90;99.90;;;;;;5058153;28;20213;-64
2024/01/23 09:02:24;;;;;;;12.45;2.70;;;6.90;99.90;;;;;;5058580;28;20198;-64
2024/01/23 09:04:52;;;;;;;18.25;4.05;;;6.90;99.90;;;;;;5058041;28;20212;-64
2024/01/23 09:07:19;;;;;;;13.20;4.13;;;7.00;99.90;;;;;;5057997;28;20710;-63
2024/01/23 09:09:45;;;;;;;16.30;3.92;;;7.00;99.90;;;;;;5058410;28;20202;-63
2024/01/23 09:12:12;;;;;;;12.60;3.35;;;7.00;99.90;;;;;;5058146;28;20197;-62
2024/01/23 09:14:39;;;;;;;21.10;3.80;;;7.00;99.90;;;;;;5057130;28;20213;-65
2024/01/23 09:17:06;;;;;;;14.15;4.25;;;7.00;99.90;;;;;;5057546;28;20723;-64
2024/01/23 09:19:33;;;;;;;10.70;3.65;;;7.00;99.90;;;;;;5057524;28;20280;-64
2024/01/23 09:22:01;;;;;;;17.63;4.03;;;7.00;99.90;;;;;;5058295;28;20213;-65
2024/01/23 09:24:28;;;;;;;12.10;3.35;;;7.10;99.90;;;;;;5057744;28;20564;-65
2024/01/23 09:26:59;;;;;;;7.50;2.75;;;7.10;99.90;;;;;;5056345;28;20234;-63
2024/01/23 09:29:26;;;;;;;15.77;4.18;;;7.00;99.90;;;;;;5057164;28;20228;-65
2024/01/23 09:31:53;;;;;;;12.60;3.20;;;7.10;99.90;;;;;;5057555;28;20213;-65
2024/01/23 09:34:20;;;;;;;15.25;4.07;;;7.10;99.90;;;;;;5056827;28;20695;-65
2024/01/23 09:36:47;;;;;;;14.75;3.50;;;7.10;99.90;;;;;;5058172;28;20217;-65
2024/01/23 09:39:16;;;;;;;9.48;4.00;;;7.20;99.90;;;;;;5060538;28;20212;-64
2024/01/23 09:41:46;;;;;;;19.27;3.90;;;7.20;99.90;;;;;;5061140;28;20237;-65
2024/01/23 09:44:14;;;;;;;10.32;3.40;;;7.30;99.90;;;;;;5058449;28;20212;-66
2024/01/23 09:46:43;;;;;;;21.15;5.55;;;7.30;99.90;;;;;;5058632;28;20231;-65
2024/01/23 09:49:10;;;;;;;9.38;3.92;;;7.30;99.90;;;;;;5059096;28;20210;-64
2024/01/23 09:51:40;;;;;;;13.82;3.50;;;7.30;99.90;;;;;;5059057;28;20202;-64
2024/01/23 09:54:09;;;;;;;12.27;3.72;;;7.30;99.90;;;;;;5060135;28;20202;-65
2024/01/23 09:56:37;;;;;;;8.43;2.67;;;7.30;99.90;;;;;;5058843;28;20576;-64
2024/01/23 09:59:04;;;;;;;21.00;5.43;;;7.30;99.90;;;;;;5058616;28;20201;-65
2024/01/23 10:01:31;;;;;;;15.13;4.00;;;7.30;99.90;;;;;;5060001;28;20300;-63
2024/01/23 10:03:58;;;;;;;9.63;3.13;;;7.30;99.90;;;;;;5059453;28;20194;-64
2024/01/23 10:06:26;;;;;;;19.88;4.38;;;7.20;99.90;;;;;;5058128;28;20711;-64
2024/01/23 10:08:52;;;;;;;10.13;4.13;;;7.30;99.90;;;;;;5058161;28;20202;-66
2024/01/23 10:11:19;;;;;;;16.73;4.80;;;7.20;99.90;;;;;;5058648;28;20206;-64
2024/01/23 10:13:48;;;;;;;13.68;3.67;;;7.20;99.90;;;;;;5059105;28;20240;-65
2024/01/23 10:16:16;;;;;;;9.85;3.97;;;7.30;99.90;;;;;;5058203;28;20228;-64
2024/01/23 10:18:43;;;;;;;14.40;3.88;;;7.30;99.90;;;;;;5057927;28;20253;-64
2024/01/23 10:21:09;;;;;;;12.18;4.65;;;7.30;99.90;;;;;;5057125;28;20212;-64
2024/01/23 10:23:36;;;;;;;9.63;2.70;;;7.30;99.90;;;;;;5057047;28;20205;-64
2024/01/23 10:26:03;;;;;;;8.60;3.95;;;7.40;99.90;;;;;;5055647;28;20229;-64
2024/01/23 10:28:29;;;;;;;15.00;3.80;;;7.50;99.90;;;;;;5055521;28;20201;-66
2024/01/23 10:30:58;;;;;;;18.33;5.07;;;7.50;99.90;;;;;;5055770;28;20296;-65
2024/01/23 10:33:25;;;;;;;14.43;4.35;;;7.50;99.90;;;;;;5055518;28;20218;-65
2024/01/23 10:35:52;;;;;;;12.07;3.70;;;7.50;99.90;;;;;;5056488;28;20217;-66
2024/01/23 10:38:20;;;;;;;13.05;3.42;;;7.50;99.90;;;;;;5056449;28;20202;-64
2024/01/23 10:40:47;;;;;;;13.70;3.65;;;7.60;99.90;;;;;;5055858;28;20212;-65
2024/01/23 10:43:15;;;;;;;18.15;3.67;;;7.60;99.90;;;;;;5055450;28;20202;-63
2024/01/23 10:45:42;;;;;;;16.20;3.30;;;7.60;99.90;;;;;;5055890;28;20224;-65
2024/01/23 10:48:11;;;;;;;14.77;3.75;;;7.70;99.90;;;;;;5055960;28;20210;-65
2024/01/23 10:50:38;;;;;;;11.20;2.75;;;7.70;99.90;;;;;;5056303;28;20206;-64
2024/01/23 10:53:07;;;;;;;12.38;3.85;;;7.70;99.90;;;;;;5054995;28;20230;-65
2024/01/23 10:55:37;;;;;;;15.73;4.32;;;7.80;99.90;;;;;;5055441;28;20230;-65
2024/01/23 10:58:04;;;;;;;12.23;3.55;;;7.80;99.90;;;;;;5055630;28;20235;-65
2024/01/23 11:00:33;;;;;;;11.75;3.10;;;7.90;99.90;;;;;;5055511;28;20639;-65
2024/01/23 11:03:04;;;;;;;15.00;3.58;;;8.00;99.90;;;;;;5055471;28;20217;-64
2024/01/23 11:05:39;;;;;;;13.40;4.85;;;8.00;99.90;;;;;;5055778;28;20228;-65
2024/01/23 11:08:15;;;;;;;9.52;3.15;;;8.10;99.90;;;;;;5055763;28;20262;-64
2024/01/23 11:10:47;;;;;;;9.63;4.00;;;8.10;99.90;;;;;;5055724;28;20193;-63
2024/01/23 11:13:19;;;;;;;12.10;3.70;;;8.10;99.90;;;;;;5055102;28;20534;-65
2024/01/23 11:15:46;;;;;;;19.25;4.55;;;8.10;99.90;;;;;;5055114;28;20229;-62
2024/01/23 11:18:25;;;;;;;12.10;3.40;;;8.10;99.90;;;;;;5054825;28;20206;-65
2024/01/23 11:21:14;;;;;;;15.43;4.40;;;8.10;99.90;;;;;;5055497;28;20282;-65
2024/01/23 11:23:42;;;;;;;16.23;4.90;;;8.20;99.90;;;;;;5054773;28;20563;-64
2024/01/23 11:26:15;;;;;;;17.13;3.85;;;8.20;99.90;;;;;;5054727;28;20245;-66
2024/01/23 11:28:44;;;;;;;13.73;3.63;;;8.20;99.90;;;;;;5054456;28;20292;-65
2024/01/23 11:31:14;;;;;;;11.82;4.85;;;8.30;99.90;;;;;;5060886;28;20551;-67
2024/01/23 11:33:40;;;;;;;15.23;4.05;;;8.30;99.90;;;;;;5062782;28;20240;-65
2024/01/23 11:36:13;;;;;;;19.05;4.65;;;8.30;99.90;;;;;;5061258;28;20226;-65
2024/01/23 11:38:43;;;;;;;11.10;3.70;;;8.30;99.90;;;;;;5060928;28;20632;-63
2024/01/23 11:41:16;;;;;;;10.63;3.20;;;8.30;99.90;;;;;;5061465;28;20217;-64
2024/01/23 11:43:42;;;;;;;9.18;3.38;;;8.30;99.90;;;;;;5060712;28;20276;-63
2024/01/23 11:46:13;;;;;;;16.70;4.40;;;8.30;99.90;;;;;;5061444;28;20309;-64
2024/01/23 11:48:41;;;;;;;11.80;3.60;;;8.40;99.90;;;;;;5062052;28;20202;-64
2024/01/23 11:51:08;;;;;;;7.75;3.58;;;8.50;99.90;;;;;;5061206;28;20218;-65
2024/01/23 11:53:36;;;;;;;12.00;3.75;;;8.50;99.90;;;;;;5056562;28;20601;-65
2024/01/23 11:56:04;;;;;;;21.05;5.95;;;8.50;99.90;;;;;;5058940;28;20225;-65
2024/01/23 11:58:31;;;;;;;12.27;4.15;;;8.60;99.90;;;;;;5058426;28;20243;-64
2024/01/23 12:00:58;;;;;;;15.30;4.40;;;8.50;99.90;;;;;;5058180;28;20217;-66
2024/01/23 12:03:25;;;;;;;22.27;4.60;;;8.50;99.90;;;;;;5058622;28;20198;-66
2024/01/23 12:05:52;;;;;;;13.95;5.07;;;8.60;99.90;;;;;;5057629;28;20240;-65
2024/01/23 12:08:20;;;;;;;12.57;3.10;;;8.60;99.90;;;;;;5057280;28;20205;-65
2024/01/23 12:10:49;;;;;;;15.30;6.22;;;8.70;99.90;;;;;;5056899;28;20535;-65
2024/01/23 12:13:15;;;;;;;15.30;4.10;;;8.70;99.90;;;;;;5056749;28;20201;-65
2024/01/23 12:15:42;;;;;;;13.63;3.80;;;8.70;99.90;;;;;;5057712;28;20221;-63
2024/01/23 12:18:13;;;;;;;11.40;3.65;;;8.80;99.90;;;;;;5056206;28;20206;-64
2024/01/23 12:20:43;;;;;;;8.60;3.70;;;8.80;99.90;;;;;;5056629;28;20208;-67
2024/01/23 12:23:10;;;;;;;11.82;3.92;;;8.80;99.90;;;;;;5056235;28;20206;-66
2024/01/23 12:25:37;;;;;;;18.65;4.40;;;8.80;99.90;;;;;;5057103;28;20234;-65
2024/01/23 12:28:05;;;;;;;16.73;3.80;;;8.90;99.90;;;;;;5060061;28;20300;-65
2024/01/23 12:30:33;;;;;;;19.90;4.28;;;9.00;99.90;;;;;;5062979;28;20205;-64
2024/01/23 12:32:59;;;;;;;12.30;3.95;;;9.00;99.90;;;;;;5061867;28;20202;-64
2024/01/23 12:35:26;;;;;;;15.90;3.22;;;9.00;99.90;;;;;;5062968;28;20221;-64
2024/01/23 12:37:53;;;;;;;12.32;3.25;;;9.00;99.90;;;;;;5065447;28;20206;-67
2024/01/23 12:40:22;;;;;;;30.10;4.82;;;8.90;99.90;;;;;;5066004;28;20206;-64
2024/01/23 12:42:49;;;;;;;15.47;4.33;;;8.80;99.90;;;;;;5064979;28;20202;-65
2024/01/23 12:45:18;;;;;;;13.10;4.90;;;8.80;99.90;;;;;;5066374;28;20444;-64
2024/01/23 12:47:46;;;;;;;18.00;4.32;;;8.70;99.90;;;;;;5066771;28;20260;-65
2024/01/23 12:50:19;;;;;;;16.40;3.47;;;8.70;99.90;;;;;;5065862;28;20211;-62
2024/01/23 12:52:46;;;;;;;10.10;3.35;;;8.70;99.90;;;;;;5059667;28;20194;-64